Hemet, California
Current Conditions -  °F | °C
As of 6:55 PM on Friday 21 Nov 2014 (Local Time) from KF70 Reporting Station
Clear Clear  
Wind Chill: 55°   Ceiling: Unl
Heat Index: 55°   Visibility: 10mi
Dew Point: 48°   Wind: 3mph
Humidity: 77%   Direction: 110°ESE
Pressure: 30.03"   Gusts: NA
Location:  33.75°N, 116.96°W
Report Text: KF70 220255Z AUTO 11003KT 10SM CLR 13/09 A3003 RMK AO1
Loading
Personal Weather Stations






























Interactive Weather Map New forecast layout! Learn more

10-Day Weather Forecast

Advertisements
Track Severe Weather on mobile